Latest Weather Observations for Bankstown

IDN60801

Issued at 7:32 pm EST Monday 29 May 2017 (issued every 30 minutes, with the page automatically refreshed every 10 minutes)

About weather observations | Map of weather stations | Latest weather observations for NSW | Other Formats
Station Details ID: 066137 Name: BANKSTOWN AIRPORT AWS Lat: -33.92 Lon: 150.99 Height: 6.5 m
Data from the previous 72 hours. | See also: Recent months at Bankstown
Date/Time
EST
Temp
°C
App
Temp
°C
Dew
Point
°C
Rel
Hum
%
Delta-T
°C
Wind Press
QNH
hPa
Press
MSL
hPa
Rain since
9am
mm
Dir  Spd
km/h
Gust
km/h
Spd
kts
Gust
kts
29/07:30pm 10.5 7.1 1.6 54 3.7 WSW 9 13 5 7 1021.9 1021.9 0.6
29/07:00pm 11.2 8.3 1.7 52 4.0 S 6 9 3 5 1021.7 1021.7 0.6
29/06:30pm 11.7 7.5 1.6 50 4.3 SSW 13 20 7 11 1021.3 1021.3 0.6
29/06:00pm 11.8 7.5 1.2 48 4.4 SSW 13 17 7 9 1020.8 1020.8 0.6
29/05:30pm 13.0 9.0 0.7 43 5.2 SW 11 15 6 8 1020.3 1020.3 0.6
29/05:00pm 14.1 10.1 0.4 39 5.8 WSW 11 15 6 8 1020.1 1020.1 0.6
29/04:30pm 15.4 11.1 0.8 37 6.3 WSW 13 19 7 10 1019.7 1019.7 0.6
29/04:00pm 16.2 11.9 0.7 35 6.7 WSW 13 19 7 10 1019.4 1019.4 0.6
29/03:30pm 16.7 11.6 0.8 34 6.9 SSW 17 22 9 12 1019.1 1019.1 0.6
29/03:00pm 16.8 11.7 0.5 33 7.0 SW 17 24 9 13 1018.9 1018.9 0.6
29/02:30pm 16.9 11.7 0.1 32 7.2 SW 17 22 9 12 1018.5 1018.5 0.6
29/02:00pm 16.9 11.1 -0.3 31 7.3 WSW 20 30 11 16 1018.2 1018.2 0.6
29/01:30pm 16.7 10.6 0.4 33 7.0 SW 22 33 12 18 1018.3 1018.3 0.6
29/01:00pm 16.7 9.6 1.2 35 6.8 WSW 28 41 15 22 1018.1 1018.1 0.6
29/12:30pm 16.8 10.8 1.3 35 6.8 WSW 22 30 12 16 1018.1 1018.1 0.6
29/12:00pm 16.0 10.3 0.6 35 6.6 SW 20 33 11 18 1018.3 1018.3 0.6
29/11:30am 15.4 8.6 0.8 37 6.3 WSW 26 43 14 23 1018.5 1018.5 0.4
29/11:00am 15.2 8.3 -0.1 35 6.4 WSW 26 39 14 21 1018.4 1018.4 0.0
29/10:30am 14.6 7.4 0.5 38 6.0 WSW 28 39 15 21 1018.6 1018.6 0.0
29/10:00am 14.5 8.9 1.4 41 5.7 WSW 20 37 11 20 1018.5 1018.5 0.0
29/09:30am 13.9 8.1 2.2 45 5.1 SW 22 32 12 17 1018.4 1018.4 0.0
29/09:00am 13.7 9.1 3.5 50 4.6 WSW 17 24 9 13 1018.0 1018.0 0.0
29/08:30am 12.9 8.3 3.8 54 4.1 W 17 22 9 12 1017.6 1017.6 0.0
29/08:00am 11.9 8.0 5.5 65 3.0 W 15 19 8 10 1017.1 1017.1 0.0
29/07:30am 10.0 7.2 5.2 72 2.2 WNW 9 13 5 7 1017.0 1017.0 0.0
29/07:00am 9.8 6.7 5.4 74 2.0 W 11 15 6 8 1016.7 1016.7 0.0
29/06:30am 9.1 5.9 5.3 77 1.7 WNW 11 13 6 7 1016.2 1016.2 0.0
29/06:00am 9.8 7.4 5.2 73 2.1 SSE 7 13 4 7 1016.0 1016.0 0.0
29/05:30am 9.6 6.7 4.8 72 2.1 NW 9 11 5 6 1015.5 1015.5 0.0
29/05:00am 9.8 6.4 4.0 67 2.5 NNW 11 15 6 8 1015.0 1015.0 0.0
29/04:30am 9.8 6.1 4.2 68 2.5 NW 13 15 7 8 1014.6 1014.6 0.0
29/04:00am 10.2 6.3 3.5 63 2.9 NW 13 17 7 9 1014.4 1014.4 0.0
29/03:30am 10.9 7.8 3.7 61 3.2 WNW 9 13 5 7 1014.4 1014.4 0.0
29/03:00am 11.0 7.6 4.0 62 3.1 NNW 11 15 6 8 1014.2 1014.2 0.0
29/02:30am 11.1 7.0 4.3 63 3.0 WNW 15 19 8 10 1014.1 1014.1 0.0
29/02:00am 12.0 7.8 3.8 57 3.7 W 15 20 8 11 1014.3 1014.3 0.0
29/01:30am 11.4 8.8 4.4 62 3.2 SW 7 11 4 6 1014.4 1014.4 0.0
29/01:00am 10.4 8.8 4.5 67 2.6 SSW 2 7 1 4 1014.3 1014.3 0.0
29/12:30am 12.0 9.5 5.0 62 3.2 NW 7 9 4 5 1013.9 1013.9 0.0
29/12:00am 14.1 11.4 5.5 56 4.1 NNE 9 13 5 7 1013.8 1013.8 0.0
 
Date/Time
EST
Temp
°C
App
Temp
°C
Dew
Point
°C
Rel
Hum
%
Delta-T
°C
Wind Press
QNH
hPa
Press
MSL
hPa
Rain since
9am
mm
Dir  Spd
km/h
Gust
km/h
Spd
kts
Gust
kts
28/11:30pm 13.8 11.6 5.4 57 3.9 NE 6 9 3 5 1013.7 1013.7 0.0
28/11:00pm 13.4 12.2 6.5 63 3.3 SSW 2 9 1 5 1013.5 1013.5 0.0
28/10:30pm 14.3 11.4 6.6 60 3.7 NW 11 15 6 8 1013.4 1013.4 0.0
28/10:00pm 14.9 11.9 7.7 62 3.6 N 13 17 7 9 1012.8 1012.8 0.0
28/09:30pm 15.2 14.4 8.0 62 3.6 NNW 2 6 1 3 1012.6 1012.6 0.0
28/09:00pm 15.5 12.9 7.8 60 3.8 W 11 17 6 9 1012.6 1012.6 0.0
28/08:30pm 16.2 13.6 7.9 58 4.2 WNW 11 17 6 9 1011.8 1011.8 0.0
28/08:00pm 16.4 13.7 8.9 61 3.9 W 13 19 7 10 1011.8 1011.8 0.0
28/07:30pm 18.0 14.8 8.6 54 4.9 WNW 15 20 8 11 1011.3 1011.3 0.0
28/07:00pm 17.7 15.0 8.8 56 4.6 WNW 13 22 7 12 1010.9 1010.9 0.0
28/06:30pm 18.5 13.7 8.7 53 5.1 WSW 24 43 13 23 1010.8 1010.8 0.0
28/06:00pm 19.3 17.3 8.6 50 5.6 N 9 11 5 6 1009.3 1009.3 0.0
28/05:30pm 19.2 16.6 7.9 48 5.8 NNW 11 15 6 8 1009.0 1009.0 0.0
28/05:00pm 20.1 16.7 7.5 44 6.5 NNW 15 20 8 11 1008.8 1008.8 0.0
28/04:30pm 20.6 16.9 7.9 44 6.6 NNW 17 28 9 15 1008.6 1008.6 0.0
28/04:00pm 21.6 17.8 7.4 40 7.3 NNW 17 24 9 13 1008.6 1008.6 0.0
28/03:30pm 22.3 18.5 7.7 39 7.6 NNW 17 28 9 15 1008.6 1008.6 0.0
28/03:00pm 22.2 17.9 8.0 40 7.4 NNW 20 32 11 17 1008.8 1008.8 0.0
28/02:30pm 22.8 18.2 8.1 39 7.7 NNW 22 37 12 20 1008.7 1008.7 0.0
28/02:00pm 22.6 17.6 8.0 39 7.7 NNW 24 32 13 17 1009.1 1009.1 0.0
28/01:30pm 22.8 18.9 9.6 43 7.1 NW 20 32 11 17 1009.4 1009.4 0.0
28/01:00pm 23.2 19.9 10.9 46 6.8 NNW 19 28 10 15 1009.7 1009.7 0.0
28/12:30pm 22.2 18.4 11.0 49 6.2 NNW 22 30 12 16 1010.2 1010.2 0.0
28/12:00pm 21.8 18.0 11.2 51 5.9 NNW 22 33 12 18 1010.6 1010.6 0.0
28/11:30am 21.0 17.8 11.9 56 5.1 NNW 20 30 11 16 1011.2 1011.2 0.0
28/11:00am 19.7 16.4 11.7 60 4.4 NNW 20 28 11 15 1011.9 1011.9 0.0
28/10:30am 16.0 15.9 13.3 84 1.5 SSW 6 11 3 6 1012.5 1012.5 0.0
28/10:00am 13.3 13.3 12.5 95 0.4 SSW 4 7 2 4 1013.0 1013.0 0.0
28/09:39am 12.1 12.7 11.9 99 0.1 CALM 0 0 0 0 1013.0 1013.0 0.0
28/09:30am 11.8 12.3 11.6 99 0.1 CALM 0 0 0 0 1013.2 1013.2 0.0
28/09:00am 10.1 10.2 10.0 99 0.1 CALM 0 0 0 0 1013.4 1013.4 0.0
28/08:30am 9.3 9.1 9.2 99 0.0 CALM 0 0 0 0 1013.5 1013.5 0.0
28/08:00am 9.0 7.6 8.9 99 0.0 SW 6 9 3 5 1013.7 1013.7 0.0
28/07:30am 9.0 8.8 8.9 99 0.0 CALM 0 0 0 0 1013.8 1013.8 0.0
28/07:00am 8.7 8.4 8.6 99 0.0 CALM 0 0 0 0 1013.5 1013.5 0.0
28/06:30am 8.1 6.8 7.8 98 0.1 SW 4 7 2 4 1013.6 1013.6 0.0
28/06:00am 7.6 5.8 7.3 98 0.1 SW 6 9 3 5 1013.4 1013.4 0.0
28/05:30am 7.1 6.0 6.8 98 0.1 NNE 2 6 1 3 1013.4 1013.4 0.0
28/05:00am 7.0 6.2 6.6 97 0.2 CALM 0 0 0 0 1013.5 1013.5 0.0
28/04:30am 7.6 7.0 7.2 97 0.2 CALM 0 0 0 0 1013.6 1013.6 0.0
28/04:00am 6.8 6.0 6.4 97 0.2 CALM 0 0 0 0 1013.7 1013.7 0.0
28/03:57am 7.2 6.5 6.8 97 0.2 CALM 0 0 0 0 1013.7 1013.7 0.0
28/03:42am 8.8 8.5 8.5 98 0.1 CALM 0 0 0 0 1013.8 1013.8 0.0
28/03:30am 8.4 7.9 8.0 97 0.2 CALM 0 0 0 0 1014.1 1014.1 0.0
28/03:27am 8.4 7.9 8.0 97 0.2 CALM 0 0 0 0 1014.1 1014.1 0.0
28/03:23am 8.3 7.8 7.9 97 0.2 CALM 0 0 0 0 1014.2 1014.2 0.0
28/03:00am 8.3 7.8 7.9 97 0.2 CALM 0 0 0 0 1014.5 1014.5 0.0
28/02:37am 8.0 7.4 7.4 96 0.3 CALM 0 0 0 0 1014.8 1014.8 0.0
28/02:30am 7.8 7.2 7.2 96 0.3 CALM 0 0 0 0 1014.9 1014.9 0.0
28/02:17am 8.4 7.9 8.0 97 0.2 CALM 0 0 0 0 1015.1 1015.1 0.0
28/02:13am 8.6 8.2 8.2 97 0.2 CALM 0 0 0 0 1015.1 1015.1 0.0
28/02:00am 9.5 9.3 9.2 98 0.1 CALM 0 0 0 0 1015.2 1015.2 0.0
28/01:40am 8.9 8.6 8.5 97 0.2 CALM 0 0 0 0 1015.4 1015.4 0.0
28/01:30am 8.6 8.2 8.2 97 0.2 CALM 0 0 0 0 1015.4 1015.4 0.0
28/01:00am 8.5 8.0 7.9 96 0.3 CALM 0 0 0 0 1015.6 1015.6 0.0
28/12:56am 8.4 7.9 7.8 96 0.3 CALM 0 0 0 0 1015.6 1015.6 0.0
28/12:42am 9.1 8.7 8.3 95 0.4 CALM 0 0 0 0 1015.8 1015.8 0.0
28/12:30am 9.2 8.8 8.4 95 0.4 CALM 0 0 0 0 1015.9 1015.9 0.0
28/12:00am 10.1 10.0 9.6 97 0.2 CALM 0 0 0 0 1016.3 1016.3 0.0
 
Date/Time
EST
Temp
°C
App
Temp
°C
Dew
Point
°C
Rel
Hum
%
Delta-T
°C
Wind Press
QNH
hPa
Press
MSL
hPa
Rain since
9am
mm
Dir  Spd
km/h
Gust
km/h
Spd
kts
Gust
kts
27/11:30pm 10.4 10.4 9.8 96 0.3 CALM 0 0 0 0 1016.6 1016.6 0.0
27/11:00pm 10.1 10.0 9.3 95 0.4 CALM 0 0 0 0 1016.9 1016.9 0.0
27/10:30pm 10.4 10.3 9.3 93 0.5 CALM 0 0 0 0 1017.2 1017.2 0.0
27/10:07pm 10.9 11.0 10.0 94 0.5 CALM 0 0 0 0 1017.2 1017.2 0.0
27/10:00pm 10.8 10.7 9.6 92 0.6 CALM 0 0 0 0 1017.3 1017.3 0.0
27/09:55pm 11.1 11.2 10.0 93 0.6 CALM 0 0 0 0 1017.3 1017.3 0.0
27/09:30pm 11.7 12.0 10.8 94 0.5 CALM 0 0 0 0 1017.5 1017.5 0.0
27/09:23pm 11.6 11.8 10.5 93 0.6 CALM 0 0 0 0 1017.5 1017.5 0.0
27/09:00pm 12.2 12.6 11.1 93 0.6 CALM 0 0 0 0 1017.5 1017.5 0.0
27/08:30pm 12.4 12.5 10.0 85 1.2 CALM 0 0 0 0 1017.4 1017.4 0.0
27/08:00pm 15.7 15.1 12.3 80 1.9 NNE 7 11 4 6 1017.5 1017.5 0.0
27/07:30pm 15.9 15.4 12.5 80 1.9 NE 7 9 4 5 1017.6 1017.6 0.0
27/07:00pm 16.2 15.2 12.4 78 2.1 NNE 9 13 5 7 1017.7 1017.7 0.0
27/06:30pm 16.5 15.5 12.3 76 2.3 NNE 9 13 5 7 1017.7 1017.7 0.0
27/06:00pm 17.2 15.6 12.7 75 2.5 NE 13 17 7 9 1017.4 1017.4 0.0
27/05:30pm 17.7 16.5 12.8 73 2.7 NE 11 13 6 7 1017.2 1017.2 0.0
27/05:00pm 18.3 17.2 13.0 71 3.0 NE 11 17 6 9 1017.1 1017.1 0.0
27/04:30pm 19.2 17.6 12.7 66 3.6 NE 13 17 7 9 1016.9 1016.9 0.0
27/04:00pm 20.0 18.7 12.5 62 4.2 NE 11 19 6 10 1017.1 1017.1 0.0
27/03:30pm 20.8 19.3 10.6 52 5.6 NNW 9 13 5 7 1017.3 1017.3 0.0
27/03:00pm 20.8 19.5 10.0 50 5.8 N 7 15 4 8 1017.3 1017.3 0.0
27/02:30pm 21.4 19.8 10.3 49 6.0 NNE 9 15 5 8 1017.4 1017.4 0.0
27/02:00pm 20.4 19.4 10.2 52 5.5 NW 6 13 3 7 1017.7 1017.7 0.0
27/01:30pm 20.4 20.8 12.4 60 4.5 NNW 2 7 1 4 1018.1 1018.1 0.0
27/01:00pm 20.2 19.6 11.7 58 4.7 NE 6 7 3 4 1018.6 1018.6 0.0
27/12:30pm 19.2 18.0 11.7 62 4.1 WNW 9 13 5 7 1019.1 1019.1 0.0
27/12:00pm 19.4 19.4 12.4 64 3.9 ESE 4 9 2 5 1019.8 1019.8 0.0
27/11:30am 19.3 19.0 12.6 65 3.8 NW 6 7 3 4 1020.4 1020.4 0.0
27/11:00am 18.7 18.1 12.2 66 3.6 NW 7 9 4 5 1021.1 1021.1 0.0
27/10:30am 17.1 15.8 11.4 69 3.1 W 9 13 5 7 1021.6 1021.6 0.0
27/10:00am 15.6 13.8 11.0 74 2.4 NNW 11 13 6 7 1022.0 1022.0 0.0
27/09:30am 15.5 13.7 10.7 73 2.5 NW 11 13 6 7 1022.0 1022.0 0.0
27/09:00am 14.5 13.4 10.5 77 2.1 NW 7 9 4 5 1022.0 1022.0 0.0
27/08:30am 13.7 12.5 10.3 80 1.8 WNW 7 7 4 4 1022.1 1022.1 0.0
27/08:00am 12.8 11.8 10.2 84 1.3 WNW 6 7 3 4 1022.1 1022.1 0.0
27/07:30am 11.7 10.6 10.1 90 0.8 WNW 6 7 3 4 1022.1 1022.1 0.0
27/07:00am 10.9 9.5 9.7 92 0.6 NW 7 9 4 5 1022.0 1022.0 0.0
27/06:30am 10.7 9.3 9.5 92 0.6 NNW 7 9 4 5 1021.7 1021.7 0.0
27/06:00am 10.8 9.4 9.6 92 0.6 WSW 7 7 4 4 1021.5 1021.5 0.0
27/05:30am 11.0 9.8 9.6 91 0.7 WSW 6 7 3 4 1021.3 1021.3 0.0
27/05:00am 11.0 9.9 9.8 92 0.6 WSW 6 7 3 4 1021.2 1021.2 0.0
27/04:30am 11.1 9.9 9.7 91 0.7 WSW 6 9 3 5 1021.0 1021.0 0.0
27/04:00am 10.7 9.8 9.1 90 0.8 SW 4 9 2 5 1021.1 1021.1 0.0
27/03:30am 11.1 9.9 9.5 90 0.8 SW 6 7 3 4 1021.2 1021.2 0.0
27/03:00am 10.9 10.0 9.3 90 0.8 SW 4 7 2 4 1021.5 1021.5 0.0
27/02:30am 11.0 10.9 9.4 90 0.8 CALM 0 6 0 3 1021.7 1021.7 0.0
27/02:00am 11.0 10.6 9.6 91 0.7 SW 2 6 1 3 1021.7 1021.7 0.0
27/01:30am 11.1 9.9 9.4 89 0.9 SW 6 7 3 4 1021.8 1021.8 0.0
27/01:00am 11.5 10.4 9.9 90 0.8 SW 6 9 3 5 1021.9 1021.9 0.0
27/12:30am 11.4 11.5 10.0 91 0.7 CALM 0 0 0 0 1022.0 1022.0 0.0
27/12:00am 11.4 10.7 10.0 91 0.7 SW 4 7 2 4 1022.1 1022.1 0.0
 
Date/Time
EST
Temp
°C
App
Temp
°C
Dew
Point
°C
Rel
Hum
%
Delta-T
°C
Wind Press
QNH
hPa
Press
MSL
hPa
Rain since
9am
mm
Dir  Spd
km/h
Gust
km/h
Spd
kts
Gust
kts
26/11:30pm 11.5 10.8 10.1 91 0.7 SW 4 7 2 4 1022.2 1022.2 0.0
26/11:00pm 12.0 12.2 10.4 90 0.8 CALM 0 0 0 0 1022.1 1022.1 0.0
26/10:30pm 12.5 12.7 10.7 89 0.9 CALM 0 0 0 0 1022.3 1022.3 0.0
26/10:00pm 12.9 13.3 11.3 90 0.8 CALM 0 6 0 3 1022.2 1022.2 0.0
26/09:30pm 12.9 13.3 11.3 90 0.8 CALM 0 0 0 0 1022.2 1022.2 0.0
26/09:00pm 12.9 13.2 10.8 87 1.1 CALM 0 2 0 1 1022.2 1022.2 0.0
26/08:30pm 12.9 13.1 10.4 85 1.3 CALM 0 0 0 0 1022.1 1022.1 0.0
26/08:00pm 13.6 14.0 11.1 85 1.3 CALM 0 0 0 0 1021.9 1021.9 0.0

Other Formats:

Comma delimited format used in spreadsheet applications
http://www.bom.gov.au/fwo/IDN60801/IDN60801.94765.axf

JavaScript Object Notation format (JSON) in row-major order
http://www.bom.gov.au/fwo/IDN60801/IDN60801.94765.json